Time;durP1;ratioP1;P1;durP2;ratioP2;P2;SDS_P1;SDS_P2;PMS_P1;PMS_P2;Temp;Humidity;BMP_temperature;BMP_pressure;BME280_temperature;BME280_humidity;BME280_pressure;Samples;Min_cycle;Max_cycle;Signal;HPM_P1;HPM_P2
2023/10/24 00:00:24;;;;;;;4.63;3.95;;;;;;;;;;5887723;28;20078;-73
2023/10/24 00:03:15;;;;;;;8.60;3.05;;;;;;;;;;5899122;28;20158;-73
2023/10/24 00:06:06;;;;;;;6.50;3.33;;;;;;;;;;5887513;28;20045;-73
2023/10/24 00:08:57;;;;;;;7.03;3.95;;;;;;;;;;5887329;28;20156;-74
2023/10/24 00:11:48;;;;;;;5.63;2.22;;;;;;;;;;5887153;28;20045;-74
2023/10/24 00:14:38;;;;;;;2.80;2.45;;;;;;;;;;5887247;28;20391;-73
2023/10/24 00:17:29;;;;;;;7.30;3.67;;;;;;;;;;5887315;28;20461;-73
2023/10/24 00:20:20;;;;;;;1.50;1.35;;;;;;;;;;5886942;28;20125;-73
2023/10/24 00:23:12;;;;;;;1.77;1.45;;;;;;;;;;5885859;28;20494;-74
2023/10/24 00:26:02;;;;;;;2.97;2.05;;;;;;;;;;5886858;28;20175;-73
2023/10/24 00:28:53;;;;;;;7.60;3.33;;;;;;;;;;5887051;28;20049;-74
2023/10/24 00:31:44;;;;;;;1.88;1.77;;;;;;;;;;5886937;28;20120;-74
2023/10/24 00:34:35;;;;;;;3.38;2.60;;;;;;;;;;5886824;28;20096;-73
2023/10/24 00:37:26;;;;;;;7.30;3.20;;;;;;;;;;5887093;28;20080;-73
2023/10/24 00:40:18;;;;;;;2.03;1.85;;;;;;;;;;5887128;28;20099;-73
2023/10/24 00:43:09;;;;;;;5.50;2.33;;;;;;;;;;5886506;28;20139;-73
2023/10/24 00:46:00;;;;;;;3.92;2.25;;;;;;;;;;5887130;28;20134;-74
2023/10/24 00:48:51;;;;;;;2.50;1.58;;;;;;;;;;5886687;28;20059;-74
2023/10/24 00:51:42;;;;;;;2.75;2.50;;;;;;;;;;5887045;28;20406;-74
2023/10/24 00:54:34;;;;;;;5.20;2.70;;;;;;;;;;5886612;28;20430;-74
2023/10/24 00:57:26;;;;;;;2.45;2.10;;;;;;;;;;5886507;28;20391;-73
2023/10/24 01:00:17;;;;;;;1.13;1.10;;;;;;;;;;5885698;28;20498;-73
2023/10/24 01:03:08;;;;;;;2.95;1.92;;;;;;;;;;5886531;28;20048;-73
2023/10/24 01:06:00;;;;;;;2.00;1.58;;;;;;;;;;5887069;28;20135;-74
2023/10/24 01:08:51;;;;;;;2.08;1.73;;;;;;;;;;5886782;28;20049;-74
2023/10/24 01:11:42;;;;;;;1.52;1.42;;;;;;;;;;5886468;28;20049;-74
2023/10/24 01:14:33;;;;;;;2.97;2.17;;;;;;;;;;5886237;28;20132;-73
2023/10/24 01:17:24;;;;;;;3.20;1.40;;;;;;;;;;5886517;28;20048;-73
2023/10/24 01:20:15;;;;;;;1.05;1.02;;;;;;;;;;5886825;28;20132;-73
2023/10/24 01:23:09;;;;;;;3.42;1.83;;;;;;;;;;5886399;28;20048;-73
2023/10/24 01:26:01;;;;;;;2.92;1.88;;;;;;;;;;5886735;28;20063;-74
2023/10/24 01:28:52;;;;;;;2.05;1.30;;;;;;;;;;5888789;28;20041;-73
2023/10/24 01:31:43;;;;;;;3.03;2.13;;;;;;;;;;5890796;28;20049;-73
2023/10/24 01:34:34;;;;;;;2.50;2.08;;;;;;;;;;5890295;28;20051;-73
2023/10/24 01:37:25;;;;;;;4.10;1.83;;;;;;;;;;5890361;28;20041;-74
2023/10/24 01:40:16;;;;;;;3.13;1.95;;;;;;;;;;5890695;28;20072;-73
2023/10/24 01:43:07;;;;;;;1.52;0.90;;;;;;;;;;5888672;28;20048;-73
2023/10/24 01:45:57;;;;;;;2.30;1.88;;;;;;;;;;5890503;28;20048;-73
2023/10/24 01:48:48;;;;;;;5.13;2.72;;;;;;;;;;5890305;28;20049;-73
2023/10/24 01:51:39;;;;;;;4.10;2.30;;;;;;;;;;5890312;28;20444;-73
2023/10/24 01:54:30;;;;;;;1.95;1.75;;;;;;;;;;5890307;28;20056;-73
2023/10/24 01:57:21;;;;;;;1.83;1.45;;;;;;;;;;5889404;28;20059;-73
2023/10/24 02:00:12;;;;;;;3.17;1.92;;;;;;;;;;5890358;28;20421;-73
2023/10/24 02:03:03;;;;;;;2.88;2.00;;;;;;;;;;5889853;28;20414;-73
2023/10/24 02:05:54;;;;;;;3.35;2.42;;;;;;;;;;5890235;28;20049;-73
2023/10/24 02:08:45;;;;;;;1.90;1.30;;;;;;;;;;5889523;28;20052;-73
2023/10/24 02:11:35;;;;;;;1.70;1.33;;;;;;;;;;5889711;28;20152;-73
2023/10/24 02:14:29;;;;;;;9.13;1.52;;;;;;;;;;5890113;28;20425;-73
2023/10/24 02:17:20;;;;;;;1.75;1.40;;;;;;;;;;5889367;28;20053;-73
2023/10/24 02:20:11;;;;;;;1.70;1.27;;;;;;;;;;5889649;28;20213;-73
2023/10/24 02:23:02;;;;;;;8.70;1.50;;;;;;;;;;5900561;28;20417;-73
2023/10/24 02:25:53;;;;;;;1.70;1.20;;;;;;;;;;5904296;28;20550;-74
2023/10/24 02:28:43;;;;;;;1.23;1.05;;;;;;;;;;5889034;28;20414;-73
2023/10/24 02:31:34;;;;;;;1.27;1.17;;;;;;;;;;5889414;28;20406;-73
2023/10/24 02:34:25;;;;;;;0.85;0.73;;;;;;;;;;5889525;28;20045;-73
2023/10/24 02:37:16;;;;;;;3.58;2.45;;;;;;;;;;5888708;28;20138;-73
2023/10/24 02:40:08;;;;;;;1.83;1.45;;;;;;;;;;5889331;28;20187;-74
2023/10/24 02:42:59;;;;;;;2.38;1.27;;;;;;;;;;5889278;28;20067;-74
2023/10/24 02:45:50;;;;;;;3.10;1.88;;;;;;;;;;5889123;28;20445;-74
2023/10/24 02:48:41;;;;;;;1.65;1.20;;;;;;;;;;5888717;28;20045;-74
2023/10/24 02:51:31;;;;;;;2.80;1.77;;;;;;;;;;5889166;28;20045;-74
2023/10/24 02:54:23;;;;;;;6.82;1.73;;;;;;;;;;5889039;28;20056;-74
2023/10/24 02:57:16;;;;;;;2.08;1.25;;;;;;;;;;5888163;28;20045;-74
2023/10/24 03:00:07;;;;;;;2.25;1.92;;;;;;;;;;5889142;28;20384;-73
2023/10/24 03:02:58;;;;;;;0.95;0.90;;;;;;;;;;5888915;28;20059;-73
2023/10/24 03:05:49;;;;;;;5.38;1.55;;;;;;;;;;5888347;28;20052;-74
2023/10/24 03:08:40;;;;;;;5.05;2.63;;;;;;;;;;5888343;28;20052;-74
2023/10/24 03:11:31;;;;;;;1.45;1.10;;;;;;;;;;5887987;28;20449;-74
2023/10/24 03:14:22;;;;;;;4.00;2.33;;;;;;;;;;5887024;28;20122;-74
2023/10/24 03:17:12;;;;;;;2.17;1.30;;;;;;;;;;5887901;28;20068;-74
2023/10/24 03:20:05;;;;;;;1.65;1.55;;;;;;;;;;5888528;28;20489;-74
2023/10/24 03:22:55;;;;;;;4.03;1.05;;;;;;;;;;5888604;28;20049;-74
2023/10/24 03:25:46;;;;;;;3.15;2.75;;;;;;;;;;5888181;28;20049;-74
2023/10/24 03:28:37;;;;;;;2.88;2.05;;;;;;;;;;5886742;28;20596;-74
2023/10/24 03:31:28;;;;;;;3.80;1.60;;;;;;;;;;5888002;28;20128;-74
2023/10/24 03:34:19;;;;;;;1.40;1.30;;;;;;;;;;5888265;28;20422;-74
2023/10/24 03:37:09;;;;;;;2.25;1.17;;;;;;;;;;5887872;28;20091;-74
2023/10/24 03:40:00;;;;;;;4.55;2.45;;;;;;;;;;5888070;28;20053;-74
2023/10/24 03:42:51;;;;;;;2.08;1.70;;;;;;;;;;5905270;28;20044;-74
2023/10/24 03:45:43;;;;;;;3.35;1.80;;;;;;;;;;5910052;28;20058;-75
2023/10/24 03:48:34;;;;;;;2.38;1.90;;;;;;;;;;5910100;28;20048;-74
2023/10/24 03:51:25;;;;;;;6.55;1.40;;;;;;;;;;5909165;28;20413;-74
2023/10/24 03:54:15;;;;;;;11.40;1.92;;;;;;;;;;5910113;28;20045;-74
2023/10/24 03:57:06;;;;;;;2.75;1.80;;;;;;;;;;5910115;28;20048;-74
2023/10/24 03:59:57;;;;;;;2.15;1.60;;;;;;;;;;5926072;28;20049;-74
2023/10/24 04:02:52;;;;;;;3.85;1.98;;;;;;;;;;5909914;28;20127;-75
2023/10/24 04:05:43;;;;;;;1.50;1.35;;;;;;;;;;5909910;28;20131;-74
2023/10/24 04:08:34;;;;;;;2.78;2.20;;;;;;;;;;5909783;28;20047;-75
2023/10/24 04:11:24;;;;;;;2.13;1.92;;;;;;;;;;5909971;28;20573;-75
2023/10/24 04:14:15;;;;;;;1.38;1.20;;;;;;;;;;5910041;28;20071;-75
2023/10/24 04:17:06;;;;;;;2.05;1.83;;;;;;;;;;5909693;28;20044;-74
2023/10/24 04:19:57;;;;;;;7.93;2.42;;;;;;;;;;5910076;28;20125;-75
2023/10/24 04:22:48;;;;;;;3.53;1.52;;;;;;;;;;5909867;28;20044;-75
2023/10/24 04:25:39;;;;;;;2.40;1.65;;;;;;;;;;5909812;28;20127;-75
2023/10/24 04:28:29;;;;;;;9.77;2.22;;;;;;;;;;5909639;28;20129;-75
2023/10/24 04:31:20;;;;;;;2.95;1.98;;;;;;;;;;5908626;28;20489;-74
2023/10/24 04:34:11;;;;;;;2.92;1.13;;;;;;;;;;5909708;28;20048;-74
2023/10/24 04:37:02;;;;;;;3.33;1.63;;;;;;;;;;5909684;28;20048;-74
2023/10/24 04:39:54;;;;;;;1.13;0.90;;;;;;;;;;5910032;28;20056;-75
2023/10/24 04:42:45;;;;;;;3.08;1.60;;;;;;;;;;5909487;28;20040;-75
2023/10/24 04:45:37;;;;;;;1.88;1.33;;;;;;;;;;5909442;28;20051;-75
2023/10/24 04:48:27;;;;;;;2.97;1.67;;;;;;;;;;5909462;28;20044;-75
2023/10/24 04:51:18;;;;;;;1.42;1.33;;;;;;;;;;5909252;28;20058;-74
2023/10/24 04:54:09;;;;;;;4.80;2.38;;;;;;;;;;5909314;28;20417;-74
2023/10/24 04:57:00;;;;;;;4.95;2.72;;;;;;;;;;5909892;28;20052;-75
2023/10/24 04:59:51;;;;;;;1.45;1.02;;;;;;;;;;5909592;28;20061;-74
2023/10/24 05:02:43;;;;;;;1.75;1.65;;;;;;;;;;5911353;28;20060;-75
2023/10/24 05:05:34;;;;;;;2.28;1.73;;;;;;;;;;5913838;28;20040;-75
2023/10/24 05:08:25;;;;;;;1.27;1.17;;;;;;;;;;5913615;28;20048;-75
2023/10/24 05:11:16;;;;;;;1.40;1.27;;;;;;;;;;5913690;28;20055;-75
2023/10/24 05:14:06;;;;;;;1.73;1.55;;;;;;;;;;5913447;28;20045;-74
2023/10/24 05:16:57;;;;;;;0.73;0.73;;;;;;;;;;5914136;28;20516;-75
2023/10/24 05:19:48;;;;;;;4.50;1.70;;;;;;;;;;5913277;28;20052;-75
2023/10/24 05:22:39;;;;;;;3.72;1.30;;;;;;;;;;5913378;28;20044;-75
2023/10/24 05:25:30;;;;;;;1.77;1.35;;;;;;;;;;5913335;28;20051;-75
2023/10/24 05:28:21;;;;;;;2.75;1.30;;;;;;;;;;5913229;28;20055;-75
2023/10/24 05:31:12;;;;;;;4.43;1.40;;;;;;;;;;5913357;28;20143;-74
2023/10/24 05:34:03;;;;;;;5.07;2.45;;;;;;;;;;5913313;28;20934;-74
2023/10/24 05:36:55;;;;;;;3.22;2.40;;;;;;;;;;5913809;28;20057;-75
2023/10/24 05:39:46;;;;;;;10.20;3.60;;;;;;;;;;5913084;28;20049;-75
2023/10/24 05:42:36;;;;;;;6.88;3.60;;;;;;;;;;5912859;28;20052;-74
2023/10/24 05:45:27;;;;;;;4.18;3.58;;;;;;;;;;5912994;28;20056;-74
2023/10/24 05:48:18;;;;;;;16.70;3.83;;;;;;;;;;5912913;28;20524;-74
2023/10/24 05:51:12;;;;;;;6.18;3.67;;;;;;;;;;5912718;28;20057;-74
2023/10/24 05:54:03;;;;;;;4.88;2.53;;;;;;;;;;5912757;28;20181;-73
2023/10/24 05:56:53;;;;;;;12.43;3.05;;;;;;;;;;5913101;28;20049;-74
2023/10/24 05:59:44;;;;;;;1.92;1.55;;;;;;;;;;5912657;28;20048;-75
2023/10/24 06:02:35;;;;;;;6.32;2.40;;;;;;;;;;5912754;28;20127;-74
2023/10/24 06:05:26;;;;;;;3.83;1.85;;;;;;;;;;5912508;28;20214;-74
2023/10/24 06:08:16;;;;;;;16.02;2.05;;;;;;;;;;5912518;28;20052;-75
2023/10/24 06:11:07;;;;;;;1.02;0.80;;;;;;;;;;5912389;28;20048;-74
2023/10/24 06:13:59;;;;;;;4.57;2.67;;;;;;;;;;5912479;28;20048;-74
2023/10/24 06:16:50;;;;;;;5.47;2.38;;;;;;;;;;5912523;28;20505;-74
2023/10/24 06:19:40;;;;;;;3.58;2.00;;;;;;;;;;5912022;28;20049;-74
2023/10/24 06:22:32;;;;;;;7.07;4.38;;;;;;;;;;5912257;28;20056;-74
2023/10/24 06:25:22;;;;;;;11.25;4.63;;;;;;;;;;5912036;28;20137;-74
2023/10/24 06:28:13;;;;;;;3.70;2.58;;;;;;;;;;5912292;28;20475;-74
2023/10/24 06:31:05;;;;;;;3.13;2.38;;;;;;;;;;5910643;28;20171;-74
2023/10/24 06:33:56;;;;;;;3.53;2.17;;;;;;;;;;5912498;28;20057;-74
2023/10/24 06:36:47;;;;;;;2.75;1.67;;;;;;;;;;5911979;28;20048;-75
2023/10/24 06:39:38;;;;;;;1.23;1.05;;;;;;;;;;5911735;28;20418;-75
2023/10/24 06:42:29;;;;;;;2.60;1.70;;;;;;;;;;5911742;28;20044;-75
2023/10/24 06:45:19;;;;;;;1.75;1.10;;;;;;;;;;5911678;28;20059;-75
2023/10/24 06:48:11;;;;;;;1.05;0.98;;;;;;;;;;5910294;28;20053;-75
2023/10/24 06:51:02;;;;;;;1.95;1.27;;;;;;;;;;5911405;28;20044;-75
2023/10/24 06:53:53;;;;;;;4.30;1.90;;;;;;;;;;5911971;28;20049;-75
2023/10/24 06:56:44;;;;;;;6.57;2.08;;;;;;;;;;5911511;28;20162;-75
2023/10/24 06:59:34;;;;;;;3.38;1.83;;;;;;;;;;5911342;28;20044;-75
2023/10/24 07:02:25;;;;;;;2.90;2.13;;;;;;;;;;5911525;28;20048;-75
2023/10/24 07:05:16;;;;;;;1.35;1.17;;;;;;;;;;5911237;28;20106;-75
2023/10/24 07:08:07;;;;;;;3.30;1.48;;;;;;;;;;5911424;28;20056;-74
2023/10/24 07:10:57;;;;;;;3.17;1.63;;;;;;;;;;5911690;28;20052;-75
2023/10/24 07:13:48;;;;;;;1.67;1.58;;;;;;;;;;5911219;28;20494;-75
2023/10/24 07:16:39;;;;;;;2.70;1.63;;;;;;;;;;5911197;28;20040;-75
2023/10/24 07:19:31;;;;;;;1.42;1.33;;;;;;;;;;5911026;28;20041;-75
2023/10/24 07:22:23;;;;;;;3.00;1.77;;;;;;;;;;5910955;28;20048;-75
2023/10/24 07:25:13;;;;;;;3.78;1.52;;;;;;;;;;5911295;28;20055;-74
2023/10/24 07:28:05;;;;;;;1.85;1.50;;;;;;;;;;5910999;28;20078;-74
2023/10/24 07:30:56;;;;;;;1.00;0.70;;;;;;;;;;5911287;28;20053;-75
2023/10/24 07:33:47;;;;;;;1.77;0.93;;;;;;;;;;5910828;28;20103;-75
2023/10/24 07:36:38;;;;;;;1.70;1.10;;;;;;;;;;5910784;28;20052;-75
2023/10/24 07:39:29;;;;;;;1.30;1.02;;;;;;;;;;5910760;28;20048;-75
2023/10/24 07:42:20;;;;;;;3.85;1.35;;;;;;;;;;5910739;28;20413;-74
2023/10/24 07:45:11;;;;;;;2.55;1.25;;;;;;;;;;5910555;28;20053;-75
2023/10/24 07:48:03;;;;;;;1.30;1.20;;;;;;;;;;5910860;28;20102;-75
2023/10/24 07:50:56;;;;;;;3.50;2.22;;;;;;;;;;5911025;28;20055;-76
2023/10/24 07:53:47;;;;;;;2.20;1.02;;;;;;;;;;5910694;28;20636;-75
2023/10/24 07:56:42;;;;;;;1.50;1.40;;;;;;;;;;5910575;28;20417;-75
2023/10/24 07:59:34;;;;;;;3.00;1.52;;;;;;;;;;5910553;28;20410;-75
2023/10/24 08:02:24;;;;;;;2.13;1.23;;;;;;;;;;5910689;28;20044;-76
2023/10/24 08:05:15;;;;;;;10.07;1.85;;;;;;;;;;5910670;28;20048;-75
2023/10/24 08:08:06;;;;;;;1.65;0.90;;;;;;;;;;5910587;28;20053;-74
2023/10/24 08:10:57;;;;;;;2.45;1.35;;;;;;;;;;5910688;28;20071;-75
2023/10/24 08:13:48;;;;;;;2.85;1.70;;;;;;;;;;5910514;28;20079;-75
2023/10/24 08:16:39;;;;;;;16.73;2.28;;;;;;;;;;5910447;28;20439;-74
2023/10/24 08:19:30;;;;;;;2.25;0.88;;;;;;;;;;5910335;28;20044;-75
2023/10/24 08:22:21;;;;;;;0.75;0.73;;;;;;;;;;5910553;28;20080;-74
2023/10/24 08:25:13;;;;;;;4.97;2.00;;;;;;;;;;5910090;28;20623;-75
2023/10/24 08:28:04;;;;;;;0.63;0.57;;;;;;;;;;5910479;28;20127;-74
2023/10/24 08:30:55;;;;;;;3.25;0.93;;;;;;;;;;5910666;28;20059;-75
2023/10/24 08:33:46;;;;;;;4.18;1.80;;;;;;;;;;5910286;28;20513;-74
2023/10/24 08:36:36;;;;;;;1.90;1.45;;;;;;;;;;5912363;28;20049;-74
2023/10/24 08:39:27;;;;;;;2.13;0.95;;;;;;;;;;5915039;28;20045;-76
2023/10/24 08:42:18;;;;;;;2.13;0.80;;;;;;;;;;5915152;28;20060;-76
2023/10/24 08:45:10;;;;;;;3.80;0.85;;;;;;;;;;5913448;28;20060;-75
2023/10/24 08:48:05;;;;;;;1.58;1.05;;;;;;;;;;5915201;28;20074;-74
2023/10/24 08:50:56;;;;;;;3.33;1.52;;;;;;;;;;5915125;28;20052;-76
2023/10/24 08:53:47;;;;;;;1.80;1.20;;;;;;;;;;5913599;28;20045;-76
2023/10/24 08:56:39;;;;;;;1.17;1.00;;;;;;;;;;5914728;28;20051;-75
2023/10/24 08:59:38;;;;;;;1.55;1.13;;;;;;;;;;5914497;28;20052;-76
2023/10/24 09:02:28;;;;;;;4.65;1.20;;;;;;;;;;5914702;28;20049;-76
2023/10/24 09:05:27;;;;;;;1.67;1.20;;;;;;;;;;5914317;28;20127;-76
2023/10/24 09:08:18;;;;;;;2.53;1.60;;;;;;;;;;5914707;28;20059;-76
2023/10/24 09:11:09;;;;;;;1.02;0.93;;;;;;;;;;5913069;28;20052;-76
2023/10/24 09:14:00;;;;;;;1.75;1.38;;;;;;;;;;5914685;28;20059;-76
2023/10/24 09:17:00;;;;;;;2.40;0.93;;;;;;;;;;5914507;28;20428;-77
2023/10/24 09:19:55;;;;;;;2.97;1.13;;;;;;;;;;5914198;28;20052;-76
2023/10/24 09:22:46;;;;;;;2.55;1.23;;;;;;;;;;5914254;28;20057;-76
2023/10/24 09:25:37;;;;;;;2.40;1.30;;;;;;;;;;5913843;28;20055;-76
2023/10/24 09:28:29;;;;;;;3.67;0.90;;;;;;;;;;5914188;28;20052;-76
2023/10/24 09:31:23;;;;;;;1.00;0.75;;;;;;;;;;5914073;28;20052;-77
2023/10/24 09:34:17;;;;;;;2.42;1.23;;;;;;;;;;5914013;28;20417;-77
2023/10/24 09:37:10;;;;;;;1.20;0.93;;;;;;;;;;5913930;28;20049;-76
2023/10/24 09:40:03;;;;;;;1.10;0.82;;;;;;;;;;5913759;28;20170;-76
2023/10/24 09:42:55;;;;;;;0.60;0.47;;;;;;;;;;5914470;28;20408;-76
2023/10/24 09:45:48;;;;;;;0.55;0.55;;;;;;;;;;5912272;28;20083;-77
2023/10/24 09:48:39;;;;;;;0.88;0.65;;;;;;;;;;5911490;28;20092;-77
2023/10/24 09:51:35;;;;;;;1.98;1.23;;;;;;;;;;5912322;28;20048;-76
2023/10/24 09:54:26;;;;;;;1.30;0.88;;;;;;;;;;5913410;28;20046;-78
2023/10/24 09:57:19;;;;;;;1.52;0.90;;;;;;;;;;5913581;28;20521;-76
2023/10/24 10:00:11;;;;;;;3.28;0.80;;;;;;;;;;5913143;28;20417;-76
2023/10/24 10:03:09;;;;;;;5.65;0.70;;;;;;;;;;5913287;28;20517;-76
2023/10/24 10:06:08;;;;;;;0.77;0.63;;;;;;;;;;5913608;28;20090;-77
2023/10/24 10:08:59;;;;;;;8.15;1.25;;;;;;;;;;5913327;28;20175;-76
2023/10/24 10:11:52;;;;;;;2.35;1.00;;;;;;;;;;5913486;28;20519;-78
2023/10/24 10:15:08;;;;;;;1.85;0.43;;;;;;;;;;5911698;28;20052;-77
2023/10/24 10:18:24;;;;;;;1.15;0.80;;;;;;;;;;5913236;28;20055;-78
2023/10/24 10:21:32;;;;;;;1.48;1.02;;;;;;;;;;5903984;28;20048;-77
2023/10/24 10:24:29;;;;;;;0.60;0.50;;;;;;;;;;5911605;28;20401;-78
2023/10/24 10:27:55;;;;;;;2.63;0.93;;;;;;;;;;5913059;28;20131;-77
2023/10/24 10:31:26;;;;;;;4.65;0.60;;;;;;;;;;5901673;28;20055;-78
2023/10/24 10:34:37;;;;;;;0.65;0.60;;;;;;;;;;5912319;28;20088;-77
2023/10/24 10:37:34;;;;;;;0.93;0.77;;;;;;;;;;5912765;28;20072;-77
2023/10/24 10:40:27;;;;;;;3.47;0.82;;;;;;;;;;5912410;28;20052;-78
2023/10/24 10:43:30;;;;;;;0.52;0.52;;;;;;;;;;5912474;28;20071;-77
2023/10/24 10:46:26;;;;;;;0.50;0.47;;;;;;;;;;5912151;28;20128;-77
2023/10/24 10:49:18;;;;;;;0.57;0.50;;;;;;;;;;5912299;28;20049;-74
2023/10/24 10:52:39;;;;;;;0.30;0.20;;;;;;;;;;5912222;28;20541;-77
2023/10/24 10:56:09;;;;;;;4.20;0.50;;;;;;;;;;5880861;28;20129;-78
2023/10/24 10:59:02;;;;;;;0.50;0.50;;;;;;;;;;5912214;28;20818;-78
2023/10/24 11:02:30;;;;;;;0.43;0.40;;;;;;;;;;5911708;28;20045;-78
2023/10/24 11:05:42;;;;;;;1.05;0.68;;;;;;;;;;5912192;28;20049;-78
2023/10/24 11:08:33;;;;;;;1.30;1.00;;;;;;;;;;5927970;28;20175;-78
2023/10/24 11:11:24;;;;;;;29.60;1.25;;;;;;;;;;5911854;28;20048;-78
2023/10/24 11:14:19;;;;;;;2.38;0.75;;;;;;;;;;5911561;28;20041;-78
2023/10/24 11:17:11;;;;;;;1.73;1.25;;;;;;;;;;5911599;28;20071;-79
2023/10/24 11:20:08;;;;;;;1.00;0.90;;;;;;;;;;5911374;28;20052;-77
2023/10/24 11:23:13;;;;;;;0.70;0.70;;;;;;;;;;5911778;28;20489;-78
2023/10/24 11:26:04;;;;;;;0.60;0.57;;;;;;;;;;5910093;28;20049;-78
2023/10/24 11:28:55;;;;;;;2.28;0.80;;;;;;;;;;5912004;28;20049;-78
2023/10/24 11:31:47;;;;;;;1.52;0.90;;;;;;;;;;5911709;28;20059;-78
2023/10/24 11:34:41;;;;;;;3.03;1.15;;;;;;;;;;5911464;28;20058;-78
2023/10/24 11:37:32;;;;;;;2.45;0.98;;;;;;;;;;5911224;28;20049;-78
2023/10/24 11:40:23;;;;;;;6.57;1.38;;;;;;;;;;5911021;28;20152;-78
2023/10/24 11:43:17;;;;;;;2.20;1.00;;;;;;;;;;5911087;28;20516;-78
2023/10/24 11:46:08;;;;;;;3.10;0.60;;;;;;;;;;5910781;28;20524;-78
2023/10/24 11:48:59;;;;;;;4.60;1.02;;;;;;;;;;5911442;28;20121;-79
2023/10/24 11:51:52;;;;;;;12.80;1.33;;;;;;;;;;5910861;28;20056;-78
2023/10/24 11:54:51;;;;;;;2.55;1.05;;;;;;;;;;5910766;28;20044;-78
2023/10/24 11:57:42;;;;;;;0.65;0.57;;;;;;;;;;5910966;28;20399;-79
2023/10/24 12:00:32;;;;;;;0.40;0.40;;;;;;;;;;5910628;28;20055;-78
2023/10/24 12:03:23;;;;;;;1.17;0.55;;;;;;;;;;5911008;28;20048;-78
2023/10/24 12:06:18;;;;;;;0.32;0.30;;;;;;;;;;5909492;28;20051;-78
2023/10/24 12:09:10;;;;;;;3.65;0.35;;;;;;;;;;5909428;28;20051;-78
2023/10/24 12:12:02;;;;;;;1.92;0.90;;;;;;;;;;5909208;28;20059;-77
2023/10/24 12:14:54;;;;;;;1.27;0.60;;;;;;;;;;5911174;28;20155;-78
2023/10/24 12:17:46;;;;;;;3.08;0.85;;;;;;;;;;5910438;28;20441;-78
2023/10/24 12:20:37;;;;;;;0.45;0.45;;;;;;;;;;5906128;28;20048;-77
2023/10/24 12:23:29;;;;;;;1.08;0.70;;;;;;;;;;5911029;28;20055;-78
2023/10/24 12:26:19;;;;;;;1.35;1.20;;;;;;;;;;5910776;28;20051;-78
2023/10/24 12:29:10;;;;;;;1.35;0.98;;;;;;;;;;5910669;28;20048;-78
2023/10/24 12:32:01;;;;;;;0.73;0.60;;;;;;;;;;5910529;28;20429;-77
2023/10/24 12:34:52;;;;;;;1.60;0.82;;;;;;;;;;5909844;28;20045;-77
2023/10/24 12:37:43;;;;;;;2.25;1.15;;;;;;;;;;5910973;28;20051;-78
2023/10/24 12:40:34;;;;;;;1.95;1.15;;;;;;;;;;5903497;28;20045;-77
2023/10/24 12:43:25;;;;;;;0.95;0.60;;;;;;;;;;5887397;28;20059;-77
2023/10/24 12:46:16;;;;;;;0.70;0.60;;;;;;;;;;5887351;28;20060;-77
2023/10/24 12:49:07;;;;;;;3.28;1.88;;;;;;;;;;5885792;28;20041;-77
2023/10/24 12:51:57;;;;;;;1.80;1.23;;;;;;;;;;5886296;28;20059;-78
2023/10/24 12:54:49;;;;;;;1.38;0.85;;;;;;;;;;5887255;28;20414;-77
2023/10/24 12:57:40;;;;;;;1.83;1.25;;;;;;;;;;5887329;28;20057;-77
2023/10/24 13:00:33;;;;;;;1.13;0.85;;;;;;;;;;5886785;28;20074;-78
2023/10/24 13:03:24;;;;;;;4.35;1.70;;;;;;;;;;5886681;28;20102;-78
2023/10/24 13:06:15;;;;;;;2.70;1.65;;;;;;;;;;5887201;28;20071;-77
2023/10/24 13:09:08;;;;;;;10.35;1.50;;;;;;;;;;5886309;28;20390;-77
2023/10/24 13:11:59;;;;;;;4.35;1.33;;;;;;;;;;5885635;28;20063;-77
2023/10/24 13:14:49;;;;;;;4.15;1.70;;;;;;;;;;5886553;28;20049;-78
2023/10/24 13:17:40;;;;;;;4.18;1.77;;;;;;;;;;5885012;28;20056;-77
2023/10/24 13:20:31;;;;;;;3.83;1.33;;;;;;;;;;5894419;28;20447;-77
2023/10/24 13:23:22;;;;;;;1.77;1.50;;;;;;;;;;5908255;28;20056;-77
2023/10/24 13:26:14;;;;;;;2.70;1.60;;;;;;;;;;5913496;28;20098;-77
2023/10/24 13:29:05;;;;;;;1.65;1.25;;;;;;;;;;5895783;28;20512;-77
2023/10/24 13:31:56;;;;;;;11.98;2.28;;;;;;;;;;5908086;28;20063;-77
2023/10/24 13:34:47;;;;;;;2.60;1.63;;;;;;;;;;5914943;28;20045;-77
2023/10/24 13:37:40;;;;;;;2.65;1.65;;;;;;;;;;5907680;28;20048;-77
2023/10/24 13:40:31;;;;;;;1.95;1.55;;;;;;;;;;5905206;28;20056;-77
2023/10/24 13:43:22;;;;;;;2.80;1.92;;;;;;;;;;5910802;28;20102;-76
2023/10/24 13:46:13;;;;;;;5.70;2.30;;;;;;;;;;5899002;28;20064;-77
2023/10/24 13:49:04;;;;;;;3.35;2.42;;;;;;;;;;5893735;28;20041;-77
2023/10/24 13:51:55;;;;;;;4.88;2.40;;;;;;;;;;5901687;28;20048;-77
2023/10/24 13:54:47;;;;;;;3.90;2.53;;;;;;;;;;5899944;28;20124;-77
2023/10/24 13:57:37;;;;;;;7.93;2.63;;;;;;;;;;5891562;28;20067;-78
2023/10/24 14:00:28;;;;;;;8.45;3.30;;;;;;;;;;5895274;28;20059;-78
2023/10/24 14:03:19;;;;;;;4.50;2.13;;;;;;;;;;5896173;28;20048;-77
2023/10/24 14:06:10;;;;;;;5.72;2.67;;;;;;;;;;5880815;28;20053;-77
2023/10/24 14:09:04;;;;;;;7.47;3.30;;;;;;;;;;5889871;28;20045;-74
2023/10/24 14:11:58;;;;;;;4.07;2.90;;;;;;;;;;5888541;28;20055;-78
2023/10/24 14:14:49;;;;;;;6.60;4.57;;;;;;;;;;5887266;28;20040;-78
2023/10/24 14:17:39;;;;;;;3.80;2.85;;;;;;;;;;5882690;28;20041;-78
2023/10/24 14:20:31;;;;;;;6.20;3.63;;;;;;;;;;5886521;28;20049;-78
2023/10/24 14:23:21;;;;;;;13.70;5.32;;;;;;;;;;5889206;28;20049;-78
2023/10/24 14:26:12;;;;;;;10.05;3.28;;;;;;;;;;5893513;28;20078;-78
2023/10/24 14:29:03;;;;;;;7.38;3.47;;;;;;;;;;5889252;28;20064;-77
2023/10/24 14:31:54;;;;;;;8.18;4.30;;;;;;;;;;5890444;28;20049;-78
2023/10/24 14:34:45;;;;;;;6.80;3.45;;;;;;;;;;5889560;28;20052;-78
2023/10/24 14:37:36;;;;;;;4.13;3.13;;;;;;;;;;5890143;28;20461;-78
2023/10/24 14:40:27;;;;;;;5.43;2.65;;;;;;;;;;5889291;28;20107;-78
2023/10/24 14:43:17;;;;;;;4.47;3.35;;;;;;;;;;5889779;28;20060;-77
2023/10/24 14:46:09;;;;;;;5.43;3.08;;;;;;;;;;5888661;28;20052;-77
2023/10/24 14:48:59;;;;;;;4.88;3.42;;;;;;;;;;5886784;28;20518;-78
2023/10/24 14:51:50;;;;;;;8.18;3.85;;;;;;;;;;5888138;28;20045;-77
2023/10/24 14:54:42;;;;;;;7.45;4.20;;;;;;;;;;5885448;28;20056;-77
2023/10/24 14:57:33;;;;;;;13.07;4.07;;;;;;;;;;5889074;28;20053;-77
2023/10/24 15:00:24;;;;;;;4.55;3.35;;;;;;;;;;5890667;28;20040;-77
2023/10/24 15:03:16;;;;;;;7.60;3.60;;;;;;;;;;5910360;28;20106;-77
2023/10/24 15:06:07;;;;;;;5.47;2.65;;;;;;;;;;5898406;28;20110;-76
2023/10/24 15:08:58;;;;;;;9.07;4.05;;;;;;;;;;5911845;28;20057;-76
2023/10/24 15:11:50;;;;;;;4.85;3.92;;;;;;;;;;5912371;28;20051;-77
2023/10/24 15:14:40;;;;;;;5.43;3.58;;;;;;;;;;5911954;28;20444;-76
2023/10/24 15:17:32;;;;;;;5.25;3.85;;;;;;;;;;5911845;28;20091;-77
2023/10/24 15:20:23;;;;;;;9.57;3.53;;;;;;;;;;5910474;28;20066;-77
2023/10/24 15:23:13;;;;;;;11.95;4.28;;;;;;;;;;5911206;28;20080;-77
2023/10/24 15:26:04;;;;;;;7.28;4.38;;;;;;;;;;5911317;28;20079;-77
2023/10/24 15:28:55;;;;;;;12.70;5.15;;;;;;;;;;5912016;28;20052;-77
2023/10/24 15:31:46;;;;;;;5.82;3.40;;;;;;;;;;5894152;28;20052;-77
2023/10/24 15:34:37;;;;;;;13.15;5.15;;;;;;;;;;5911289;28;20040;-77
2023/10/24 15:37:28;;;;;;;6.53;4.63;;;;;;;;;;5911104;28;20131;-76
2023/10/24 15:40:19;;;;;;;11.73;4.75;;;;;;;;;;5911003;28;20049;-77
2023/10/24 15:43:09;;;;;;;6.35;3.92;;;;;;;;;;5911117;28;20056;-76
2023/10/24 15:46:06;;;;;;;12.98;4.25;;;;;;;;;;5910684;28;20403;-77
2023/10/24 15:48:57;;;;;;;5.55;4.03;;;;;;;;;;5911030;28;20501;-77
2023/10/24 15:51:48;;;;;;;6.80;3.92;;;;;;;;;;5911434;28;20049;-77
2023/10/24 15:54:39;;;;;;;5.93;4.43;;;;;;;;;;5910655;28;20045;-77
2023/10/24 15:57:30;;;;;;;6.53;3.10;;;;;;;;;;5910860;28;20044;-77
2023/10/24 16:00:21;;;;;;;5.95;4.35;;;;;;;;;;5911046;28;20053;-77
2023/10/24 16:03:12;;;;;;;9.25;5.00;;;;;;;;;;5910774;28;20056;-77
2023/10/24 16:06:03;;;;;;;8.27;4.35;;;;;;;;;;5910673;28;20048;-76
2023/10/24 16:08:54;;;;;;;12.98;6.72;;;;;;;;;;5910971;28;20510;-76
2023/10/24 16:11:45;;;;;;;14.95;5.55;;;;;;;;;;5911063;28;20049;-77
2023/10/24 16:14:35;;;;;;;7.35;4.78;;;;;;;;;;5910785;28;20044;-77
2023/10/24 16:17:26;;;;;;;6.95;4.57;;;;;;;;;;5910278;28;20048;-77
2023/10/24 16:20:17;;;;;;;6.55;4.57;;;;;;;;;;5910117;28;20049;-77
2023/10/24 16:23:08;;;;;;;8.15;5.90;;;;;;;;;;5910022;28;20052;-76
2023/10/24 16:26:02;;;;;;;5.57;4.20;;;;;;;;;;5895847;28;20379;-76
2023/10/24 16:28:53;;;;;;;6.63;4.60;;;;;;;;;;5887491;28;20510;-77
2023/10/24 16:31:44;;;;;;;6.75;4.35;;;;;;;;;;5887603;28;20445;-76
2023/10/24 16:34:35;;;;;;;12.40;6.53;;;;;;;;;;5887017;28;20041;-76
2023/10/24 16:37:26;;;;;;;17.55;6.93;;;;;;;;;;5886947;28;20041;-77
2023/10/24 16:40:17;;;;;;;16.25;7.45;;;;;;;;;;5885302;28;20061;-77
2023/10/24 16:43:08;;;;;;;15.98;6.80;;;;;;;;;;5886899;28;20606;-77
2023/10/24 16:45:59;;;;;;;16.63;6.32;;;;;;;;;;5887039;28;20136;-74
2023/10/24 16:48:51;;;;;;;9.00;5.93;;;;;;;;;;5887547;28;20058;-75
2023/10/24 16:51:42;;;;;;;6.25;4.70;;;;;;;;;;5887318;28;20045;-76
2023/10/24 16:54:33;;;;;;;13.13;5.93;;;;;;;;;;5886867;28;20393;-75
2023/10/24 16:57:24;;;;;;;11.93;6.45;;;;;;;;;;5888475;28;20045;-76
2023/10/24 17:00:16;;;;;;;17.38;7.45;;;;;;;;;;5891553;28;20064;-76
2023/10/24 17:03:07;;;;;;;14.75;7.32;;;;;;;;;;5891572;28;20516;-76
2023/10/24 17:05:58;;;;;;;12.00;8.85;;;;;;;;;;5891783;28;20505;-77
2023/10/24 17:08:49;;;;;;;12.57;7.63;;;;;;;;;;5891195;28;20049;-77